EGHO weather

Thruxton Aerodrome
Andover, England, United Kingdom

Public forecast

Using degrees Celsius for public forecast. Weather courtesy of forecast.io.

METAR (pilot weather report)

Closest report is Middle Wallop Airfield, 4.4 nm (8.2 km) SSE. Retrieved 2019/04/23 16:50 UTC (60 minutes ago):

EGVP 231650Z 05005KT CAVOK 21/10 Q0994 BLU NOSIG

TAF (pilot weather forecast)

Forecast is more than 12 hours old.

Closest forecast is Middle Wallop Airfield, 4.4 nm (8.2 km) SSE. Retrieved 2019/01/07 18:33 UTC (4 months ago):

TAF EGVP 071727Z 0718/0821 CNL